Time;durP1;ratioP1;P1;durP2;ratioP2;P2;SDS_P1;SDS_P2;PMS_P1;PMS_P2;Temp;Humidity;BMP_temperature;BMP_pressure;BME280_temperature;BME280_humidity;BME280_pressure;Samples;Min_cycle;Max_cycle;Signal;HPM_P1;HPM_P2
2022/03/03 04:00:39;;;;;;;25.00;18.67;;;-2.90;99.90;;;;;;5775045;23;20234;-79
2022/03/03 04:03:05;;;;;;;25.90;20.03;;;-2.90;99.90;;;;;;4936197;29;20191;-79
2022/03/03 04:05:31;;;;;;;28.53;21.83;;;-2.80;99.90;;;;;;4936771;29;20230;-78
2022/03/03 04:07:57;;;;;;;26.07;20.97;;;-2.90;99.90;;;;;;4942214;29;20178;-78
2022/03/03 04:10:23;;;;;;;26.37;20.73;;;-2.90;99.90;;;;;;4941749;29;20553;-78
2022/03/03 04:12:48;;;;;;;27.10;21.53;;;-2.90;99.90;;;;;;4938229;29;20198;-78
2022/03/03 04:15:14;;;;;;;28.57;21.50;;;-2.90;99.90;;;;;;4938342;29;20209;-78
2022/03/03 04:17:40;;;;;;;31.73;23.83;;;-2.90;99.90;;;;;;4937198;29;20733;-79
2022/03/03 04:20:07;;;;;;;27.63;21.97;;;-3.00;99.90;;;;;;4940418;29;20269;-78
2022/03/03 04:22:34;;;;;;;25.43;20.70;;;-3.00;99.90;;;;;;4942085;29;20273;-79
2022/03/03 04:25:00;;;;;;;30.80;22.50;;;-2.90;99.90;;;;;;4936685;29;20206;-78
2022/03/03 04:27:26;;;;;;;25.80;20.93;;;-2.90;99.90;;;;;;4936207;29;20217;-78
2022/03/03 04:29:52;;;;;;;28.97;19.27;;;-2.90;99.90;;;;;;4936063;29;20685;-78
2022/03/03 04:32:18;;;;;;;26.90;21.30;;;-3.00;99.90;;;;;;4936333;29;20234;-78
2022/03/03 04:34:44;;;;;;;26.90;19.87;;;-3.10;99.90;;;;;;4938134;29;20179;-78
2022/03/03 04:37:10;;;;;;;27.57;20.60;;;-3.10;99.90;;;;;;4939990;29;20186;-78
2022/03/03 04:39:36;;;;;;;31.50;20.53;;;-3.00;99.90;;;;;;4937877;29;20735;-79
2022/03/03 04:42:03;;;;;;;29.20;21.87;;;-3.10;99.90;;;;;;4936916;29;20221;-78
2022/03/03 04:44:28;;;;;;;29.13;20.53;;;-3.10;99.90;;;;;;4936092;29;20214;-78
2022/03/03 04:46:54;;;;;;;27.60;19.37;;;-3.10;99.90;;;;;;4933239;29;20186;-78
2022/03/03 04:49:20;;;;;;;33.73;19.33;;;-3.10;99.90;;;;;;4928378;29;20182;-79
2022/03/03 04:51:46;;;;;;;26.60;18.93;;;-3.20;99.90;;;;;;4943225;29;20206;-77
2022/03/03 04:54:12;;;;;;;29.10;19.87;;;-3.00;99.90;;;;;;4945025;29;20186;-78
2022/03/03 04:56:39;;;;;;;31.50;19.50;;;-2.90;99.90;;;;;;4942692;29;20238;-77
2022/03/03 04:59:05;;;;;;;25.93;20.83;;;-2.80;99.90;;;;;;4942832;29;20549;-77
2022/03/03 05:01:31;;;;;;;28.87;21.23;;;-2.70;99.90;;;;;;4940751;29;20338;-77
2022/03/03 05:03:57;;;;;;;28.00;20.17;;;-2.70;99.90;;;;;;4939941;29;20686;-77
2022/03/03 05:06:23;;;;;;;31.07;19.67;;;-2.70;99.90;;;;;;4941731;29;20721;-77
2022/03/03 05:08:49;;;;;;;29.50;21.37;;;-2.80;99.90;;;;;;4945421;29;20174;-77
2022/03/03 05:11:15;;;;;;;26.43;21.40;;;-2.90;99.90;;;;;;4938202;29;20291;-76
2022/03/03 05:13:41;;;;;;;29.40;20.07;;;-2.90;99.90;;;;;;4946455;28;20232;-74
2022/03/03 05:16:08;;;;;;;27.40;20.07;;;-3.00;99.90;;;;;;4940703;29;20599;-74
2022/03/03 05:18:34;;;;;;;30.00;21.03;;;-3.00;99.90;;;;;;4942448;29;20273;-75
2022/03/03 05:21:00;;;;;;;32.63;23.33;;;-3.00;99.90;;;;;;4939705;29;20212;-75
2022/03/03 05:23:25;;;;;;;37.67;24.17;;;-3.00;99.90;;;;;;4936456;29;20266;-74
2022/03/03 05:25:51;;;;;;;38.07;26.57;;;-3.00;99.90;;;;;;4938839;29;20674;-75
2022/03/03 05:28:17;;;;;;;36.80;22.23;;;-3.10;99.90;;;;;;4938006;29;20198;-75
2022/03/03 05:30:43;;;;;;;34.63;20.47;;;-3.10;99.90;;;;;;4938653;29;20237;-75
2022/03/03 05:33:09;;;;;;;30.40;22.07;;;-3.10;99.90;;;;;;4938345;29;20209;-76
2022/03/03 05:35:34;;;;;;;31.70;23.97;;;-3.20;99.90;;;;;;4939376;29;20256;-75
2022/03/03 05:38:00;;;;;;;26.23;21.57;;;-3.20;99.90;;;;;;4938624;29;20182;-75
2022/03/03 05:40:26;;;;;;;29.17;21.97;;;-3.10;99.90;;;;;;4938547;29;20186;-74
2022/03/03 05:42:52;;;;;;;31.50;23.63;;;-3.10;99.90;;;;;;4939141;29;20862;-74
2022/03/03 05:45:18;;;;;;;29.57;21.70;;;-3.30;99.90;;;;;;4940723;29;20218;-75
2022/03/03 05:47:45;;;;;;;27.03;20.50;;;-3.30;99.90;;;;;;4938911;29;20205;-75
2022/03/03 05:50:11;;;;;;;29.67;21.97;;;-3.40;99.90;;;;;;4939095;29;20189;-75
2022/03/03 05:52:37;;;;;;;29.10;20.73;;;-3.40;99.90;;;;;;4939006;29;20277;-75
2022/03/03 05:55:04;;;;;;;28.33;19.93;;;-3.40;99.90;;;;;;4938923;29;20277;-75
2022/03/03 05:57:38;;;;;;;38.80;22.67;;;-3.40;99.90;;;;;;4937819;29;20171;-76
2022/03/03 06:00:12;;;;;;;32.30;27.13;;;-3.30;99.90;;;;;;4936806;29;20186;-76
2022/03/03 06:02:48;;;;;;;26.57;20.20;;;-3.30;99.90;;;;;;4935971;29;20245;-76
2022/03/03 06:05:22;;;;;;;29.07;20.60;;;-3.40;99.90;;;;;;4936195;29;20614;-76
2022/03/03 06:07:52;;;;;;;30.47;21.93;;;-3.40;99.90;;;;;;4936570;29;20237;-77
2022/03/03 06:10:24;;;;;;;31.90;22.27;;;-3.40;99.90;;;;;;4935690;29;20738;-77
2022/03/03 06:13:03;;;;;;;32.67;21.07;;;-3.40;99.90;;;;;;4936626;29;20190;-77
2022/03/03 06:15:29;;;;;;;29.53;21.93;;;-3.40;99.90;;;;;;4934862;29;20552;-77
2022/03/03 06:17:56;;;;;;;31.70;21.70;;;-3.30;99.90;;;;;;4935441;29;20190;-78
2022/03/03 06:20:23;;;;;;;34.97;22.77;;;-3.20;99.90;;;;;;4936308;29;20191;-76
2022/03/03 06:22:52;;;;;;;28.13;21.37;;;-3.20;99.90;;;;;;4934103;29;20217;-78
2022/03/03 06:25:18;;;;;;;26.77;20.40;;;-3.20;99.90;;;;;;4932526;29;20741;-77
2022/03/03 06:27:45;;;;;;;34.30;21.73;;;-3.10;99.90;;;;;;4914526;29;20191;-77
2022/03/03 06:30:11;;;;;;;30.80;22.87;;;-3.00;99.90;;;;;;4930868;29;20202;-77
2022/03/03 06:32:37;;;;;;;27.70;20.93;;;-3.00;99.90;;;;;;4925813;29;20190;-78
2022/03/03 06:35:04;;;;;;;26.27;20.70;;;-3.00;99.90;;;;;;4923179;29;20202;-77
2022/03/03 06:37:30;;;;;;;31.17;20.73;;;-3.00;99.90;;;;;;4922390;29;20195;-75
2022/03/03 06:39:55;;;;;;;30.53;22.20;;;-2.90;99.90;;;;;;4935951;29;20269;-77
2022/03/03 06:42:21;;;;;;;37.87;23.27;;;-2.70;99.90;;;;;;4935162;29;20689;-76
2022/03/03 06:44:47;;;;;;;31.00;26.37;;;-2.60;99.90;;;;;;4935309;29;20326;-76
2022/03/03 06:47:13;;;;;;;29.93;21.80;;;-2.50;99.90;;;;;;4935423;28;20216;-77
2022/03/03 06:49:39;;;;;;;37.53;22.50;;;-2.40;99.90;;;;;;4936013;29;20182;-76
2022/03/03 06:52:07;;;;;;;35.57;23.47;;;-2.20;99.90;;;;;;4933924;29;20194;-76
2022/03/03 06:54:33;;;;;;;41.23;26.17;;;-2.10;99.90;;;;;;4934813;29;20214;-76
2022/03/03 06:56:59;;;;;;;38.00;20.60;;;-2.00;99.90;;;;;;4935239;29;20192;-75
2022/03/03 06:59:29;;;;;;;34.37;22.07;;;-1.90;99.90;;;;;;4935627;29;20281;-76
2022/03/03 07:01:59;;;;;;;29.20;20.63;;;-1.80;99.90;;;;;;4935432;29;20694;-77
2022/03/03 07:04:26;;;;;;;36.87;21.83;;;-1.70;99.90;;;;;;4935583;29;20214;-76
2022/03/03 07:06:52;;;;;;;31.07;20.13;;;-1.60;99.90;;;;;;4933938;29;20265;-76
2022/03/03 07:09:19;;;;;;;30.40;25.33;;;-1.40;99.90;;;;;;4933286;29;20270;-76
2022/03/03 07:11:49;;;;;;;30.87;19.97;;;-1.20;99.90;;;;;;4929517;29;20213;-76
2022/03/03 07:14:15;;;;;;;35.00;30.10;;;-1.00;99.90;;;;;;4933793;29;20827;-77
2022/03/03 07:17:02;;;;;;;31.13;26.63;;;-0.80;99.90;;;;;;4935014;29;20186;-77
2022/03/03 07:19:37;;;;;;;35.83;32.07;;;-0.40;99.90;;;;;;4934921;29;20194;-77
2022/03/03 07:22:12;;;;;;;25.30;19.10;;;0.30;99.90;;;;;;4935111;29;20210;-77
2022/03/03 07:24:43;;;;;;;24.63;18.90;;;0.80;99.90;;;;;;4940606;29;20205;-76
2022/03/03 07:27:18;;;;;;;26.17;19.40;;;1.40;99.90;;;;;;4953859;28;20182;-77
2022/03/03 07:29:59;;;;;;;23.27;17.77;;;2.00;99.90;;;;;;4954361;28;20192;-76
2022/03/03 07:32:37;;;;;;;24.60;18.13;;;2.20;99.90;;;;;;4954054;28;20651;-77
2022/03/03 07:35:12;;;;;;;28.30;19.87;;;2.30;99.90;;;;;;4954144;28;20189;-77
2022/03/03 07:37:59;;;;;;;29.10;19.17;;;2.50;99.90;;;;;;4942988;29;20181;-77
2022/03/03 07:40:30;;;;;;;27.70;18.07;;;2.70;99.90;;;;;;4952388;29;20190;-76
2022/03/03 07:42:57;;;;;;;27.63;20.90;;;2.90;99.90;;;;;;4954103;29;20196;-76
2022/03/03 07:45:24;;;;;;;23.47;18.53;;;3.20;99.90;;;;;;4935792;29;20591;-76
2022/03/03 07:47:55;;;;;;;26.60;18.37;;;3.30;99.90;;;;;;4934983;29;20213;-77
2022/03/03 07:50:22;;;;;;;28.30;20.73;;;3.40;99.90;;;;;;4935108;29;20210;-76
2022/03/03 07:52:51;;;;;;;22.13;17.70;;;3.40;99.90;;;;;;4936212;29;20178;-75
2022/03/03 07:55:18;;;;;;;26.27;19.33;;;3.50;99.90;;;;;;4933515;29;20661;-75
2022/03/03 07:57:53;;;;;;;26.77;20.03;;;3.40;99.90;;;;;;4932960;29;20182;-75
2022/03/03 08:00:19;;;;;;;24.60;19.17;;;3.40;99.90;;;;;;4933122;29;20563;-75
2022/03/03 08:02:47;;;;;;;28.33;19.87;;;3.40;99.90;;;;;;4933062;29;20194;-75
2022/03/03 08:05:15;;;;;;;31.70;19.07;;;3.50;99.90;;;;;;4920458;29;20226;-75
2022/03/03 08:07:45;;;;;;;23.90;18.80;;;3.80;99.90;;;;;;4933644;29;20688;-75
2022/03/03 08:10:14;;;;;;;22.57;18.03;;;4.10;99.90;;;;;;4934279;29;20214;-75
2022/03/03 08:12:41;;;;;;;23.97;17.90;;;4.40;99.90;;;;;;4932604;29;20179;-75
2022/03/03 08:15:09;;;;;;;23.80;18.77;;;4.80;99.90;;;;;;4934132;29;20190;-75
2022/03/03 08:17:36;;;;;;;22.43;18.73;;;5.00;99.90;;;;;;4933113;29;20330;-76
2022/03/03 08:20:07;;;;;;;28.77;19.37;;;5.10;99.90;;;;;;4933859;29;20182;-76
2022/03/03 08:22:34;;;;;;;24.43;19.00;;;5.30;99.90;;;;;;4933894;29;20241;-75
2022/03/03 08:25:01;;;;;;;25.60;18.00;;;5.70;99.90;;;;;;4932687;29;20357;-75
2022/03/03 08:27:27;;;;;;;24.10;18.80;;;6.20;99.90;;;;;;4933597;29;20186;-76
2022/03/03 08:29:54;;;;;;;23.67;17.93;;;6.30;99.90;;;;;;4934092;29;20214;-76
2022/03/03 08:32:21;;;;;;;21.67;19.27;;;6.60;99.90;;;;;;4934062;29;20690;-76
2022/03/03 08:35:07;;;;;;;23.50;18.63;;;6.70;99.90;;;;;;4933256;29;20178;-76
2022/03/03 08:37:50;;;;;;;24.77;18.57;;;6.90;99.90;;;;;;4932578;29;20672;-76
2022/03/03 08:40:17;;;;;;;27.97;18.00;;;7.00;99.90;;;;;;4932583;29;20214;-74
2022/03/03 08:42:49;;;;;;;24.63;18.33;;;6.90;99.90;;;;;;4933753;29;20635;-76
2022/03/03 08:45:19;;;;;;;21.70;17.67;;;6.90;99.90;;;;;;4933537;29;20309;-77
2022/03/03 08:48:02;;;;;;;22.70;17.77;;;7.00;99.90;;;;;;4933369;29;20182;-76
2022/03/03 08:50:29;;;;;;;23.30;17.23;;;7.40;99.90;;;;;;4933186;29;20658;-77
2022/03/03 08:52:56;;;;;;;21.77;18.23;;;7.60;99.90;;;;;;4933812;29;20598;-76
2022/03/03 08:55:23;;;;;;;23.83;18.30;;;7.90;99.90;;;;;;4932462;29;20686;-76
2022/03/03 08:57:49;;;;;;;23.93;18.03;;;7.90;99.90;;;;;;4933344;29;20188;-75
2022/03/03 09:00:15;;;;;;;24.30;18.00;;;8.20;99.90;;;;;;4932562;29;20191;-75
2022/03/03 09:02:41;;;;;;;27.03;19.60;;;8.60;99.70;;;;;;4922582;29;20281;-75
2022/03/03 09:05:09;;;;;;;21.10;18.33;;;8.80;98.60;;;;;;4937255;29;20266;-81
2022/03/03 09:07:36;;;;;;;23.53;19.77;;;8.80;97.80;;;;;;4934126;29;20178;-76
2022/03/03 09:10:02;;;;;;;27.63;19.90;;;9.10;97.10;;;;;;4932341;29;20585;-76
2022/03/03 09:12:28;;;;;;;22.57;19.90;;;9.40;95.60;;;;;;4932169;29;20202;-76
2022/03/03 09:14:53;;;;;;;25.00;19.80;;;9.50;93.80;;;;;;4926013;29;20194;-76
2022/03/03 09:17:19;;;;;;;22.23;18.47;;;9.90;92.20;;;;;;4928056;29;20659;-76
2022/03/03 09:19:47;;;;;;;24.47;18.67;;;10.00;91.10;;;;;;4932287;29;20186;-77
2022/03/03 09:22:13;;;;;;;21.93;17.83;;;10.40;89.60;;;;;;4932346;29;20313;-76
2022/03/03 09:24:38;;;;;;;22.73;18.47;;;10.30;88.50;;;;;;4932144;29;20223;-76
2022/03/03 09:27:04;;;;;;;28.00;18.43;;;10.40;87.90;;;;;;4932262;29;20707;-77
2022/03/03 09:29:33;;;;;;;24.97;18.03;;;10.10;88.30;;;;;;4932382;29;20635;-75
2022/03/03 09:32:00;;;;;;;21.33;18.27;;;10.10;85.10;;;;;;4932747;29;20194;-77
2022/03/03 09:34:28;;;;;;;21.30;17.37;;;10.40;84.90;;;;;;4933141;29;20222;-76
2022/03/03 09:36:58;;;;;;;21.87;18.47;;;10.50;84.70;;;;;;4935881;29;20303;-76
2022/03/03 09:39:24;;;;;;;22.60;18.03;;;10.90;82.80;;;;;;4936642;29;20182;-76
2022/03/03 09:41:51;;;;;;;22.07;17.73;;;11.00;79.50;;;;;;4936396;29;20254;-76
2022/03/03 09:44:24;;;;;;;20.77;17.37;;;11.10;76.50;;;;;;4936777;29;20210;-76
2022/03/03 09:46:50;;;;;;;19.67;17.57;;;11.30;76.60;;;;;;4936071;29;20262;-77
2022/03/03 09:49:17;;;;;;;22.30;17.37;;;11.60;77.20;;;;;;4936703;29;20175;-76
2022/03/03 09:51:44;;;;;;;23.13;18.57;;;12.10;76.00;;;;;;4935475;29;20202;-76
2022/03/03 09:54:10;;;;;;;23.47;18.00;;;12.40;76.00;;;;;;4936610;29;20209;-76
2022/03/03 09:56:37;;;;;;;23.97;18.47;;;12.10;76.30;;;;;;4936620;29;20183;-76
2022/03/03 09:59:05;;;;;;;22.63;20.13;;;11.80;73.90;;;;;;4936463;29;20186;-76
2022/03/03 10:01:31;;;;;;;31.00;17.27;;;12.10;75.60;;;;;;4936096;29;20276;-75
2022/03/03 10:04:20;;;;;;;20.53;17.03;;;12.70;69.10;;;;;;4935413;29;20213;-75
2022/03/03 10:06:47;;;;;;;20.73;16.87;;;13.10;68.30;;;;;;4952516;29;20181;-75
2022/03/03 10:09:13;;;;;;;21.67;15.90;;;13.50;63.90;;;;;;4941828;29;20230;-76
2022/03/03 10:11:57;;;;;;;20.40;16.37;;;13.60;63.00;;;;;;4936129;28;20388;-76
2022/03/03 10:14:33;;;;;;;21.13;16.97;;;13.60;62.20;;;;;;4936473;29;20637;-76
2022/03/03 10:17:01;;;;;;;21.80;16.53;;;13.40;61.20;;;;;;4960936;23;20260;-71
2022/03/03 10:19:28;;;;;;;20.37;16.63;;;13.70;60.50;;;;;;4965358;29;20193;-70
2022/03/03 10:21:54;;;;;;;19.57;17.17;;;14.30;57.80;;;;;;4966065;29;20186;-71
2022/03/03 10:24:24;;;;;;;20.27;16.90;;;14.60;56.00;;;;;;4948222;29;20586;-71
2022/03/03 10:27:18;;;;;;;19.03;17.13;;;15.10;54.50;;;;;;4922071;29;20199;-71
2022/03/03 10:29:47;;;;;;;18.50;16.60;;;15.50;54.00;;;;;;4918535;29;20186;-72
2022/03/03 10:32:22;;;;;;;21.43;16.40;;;15.50;53.50;;;;;;4931888;29;20183;-72
2022/03/03 10:34:49;;;;;;;19.63;15.93;;;16.00;52.10;;;;;;4917111;29;20268;-72
2022/03/03 10:37:21;;;;;;;18.77;16.67;;;16.20;51.20;;;;;;4916101;29;20274;-72
2022/03/03 10:39:49;;;;;;;20.60;16.53;;;16.00;51.00;;;;;;4917659;29;20195;-71
2022/03/03 10:42:20;;;;;;;19.77;16.50;;;16.20;50.10;;;;;;4916683;29;20498;-72
2022/03/03 10:44:47;;;;;;;21.27;16.13;;;16.40;50.00;;;;;;4925573;29;20274;-71
2022/03/03 10:47:21;;;;;;;20.03;16.53;;;16.10;50.30;;;;;;4934830;29;20237;-71
2022/03/03 10:49:53;;;;;;;17.93;15.70;;;16.50;48.00;;;;;;4934450;29;20202;-71
2022/03/03 10:52:22;;;;;;;18.30;16.17;;;16.80;48.00;;;;;;4935139;29;20654;-72
2022/03/03 10:54:55;;;;;;;19.27;15.80;;;17.20;47.70;;;;;;4916336;29;20213;-72
2022/03/03 10:57:30;;;;;;;20.00;15.47;;;18.00;45.60;;;;;;4914924;29;20718;-72
2022/03/03 10:59:58;;;;;;;18.97;15.70;;;17.50;46.70;;;;;;4930946;29;20178;-71
2022/03/03 11:02:27;;;;;;;20.57;16.43;;;17.60;45.70;;;;;;4935428;29;20274;-71
2022/03/03 11:04:55;;;;;;;19.57;16.23;;;17.90;45.20;;;;;;4935455;29;20293;-71
2022/03/03 11:07:24;;;;;;;26.37;21.87;;;18.00;45.00;;;;;;4934783;29;20198;-72
2022/03/03 11:09:50;;;;;;;21.23;17.40;;;18.10;45.50;;;;;;4935387;29;20194;-72
2022/03/03 11:12:17;;;;;;;18.90;16.73;;;18.00;46.20;;;;;;4929030;29;20612;-72
2022/03/03 11:14:43;;;;;;;19.90;16.73;;;17.80;46.10;;;;;;4933803;29;20202;-72
2022/03/03 11:17:10;;;;;;;19.70;16.77;;;17.70;46.70;;;;;;4934687;29;20214;-72
2022/03/03 11:19:38;;;;;;;22.13;17.63;;;18.00;45.80;;;;;;4915339;29;20195;-72
2022/03/03 11:22:04;;;;;;;18.17;16.13;;;18.20;44.30;;;;;;4924409;29;20178;-72
2022/03/03 11:24:34;;;;;;;19.07;16.80;;;19.10;43.10;;;;;;4935107;29;20245;-72
2022/03/03 11:27:00;;;;;;;17.77;15.87;;;19.10;42.30;;;;;;4933262;29;20210;-72
2022/03/03 11:29:27;;;;;;;19.20;16.70;;;19.20;43.40;;;;;;4916281;29;20324;-71
2022/03/03 11:32:01;;;;;;;19.67;15.70;;;19.40;42.00;;;;;;4916083;29;20183;-71
2022/03/03 11:34:36;;;;;;;22.90;16.40;;;19.60;42.80;;;;;;4916929;29;20222;-72
2022/03/03 11:37:08;;;;;;;20.67;17.27;;;18.70;44.30;;;;;;4915674;29;20612;-72
2022/03/03 11:39:39;;;;;;;20.33;17.33;;;19.00;43.60;;;;;;4914821;29;20183;-72
2022/03/03 11:42:34;;;;;;;23.33;19.53;;;19.40;41.90;;;;;;4914843;29;20183;-72
2022/03/03 11:45:00;;;;;;;23.77;21.20;;;20.60;39.00;;;;;;4911897;29;20233;-71
2022/03/03 11:47:33;;;;;;;23.37;21.07;;;20.90;37.80;;;;;;4934240;29;20273;-71
2022/03/03 11:50:06;;;;;;;22.83;19.90;;;19.80;39.90;;;;;;4933443;29;20277;-72
2022/03/03 11:52:37;;;;;;;25.60;19.90;;;19.90;39.40;;;;;;4931423;29;20209;-72
2022/03/03 11:55:41;;;;;;;21.53;19.27;;;20.60;39.20;;;;;;4914986;29;20211;-72
2022/03/03 11:58:08;;;;;;;24.37;22.13;;;21.00;37.30;;;;;;4913872;29;20183;-71
2022/03/03 12:00:57;;;;;;;23.70;21.40;;;21.20;38.10;;;;;;4933533;29;20186;-72
2022/03/03 12:03:23;;;;;;;21.20;18.97;;;20.30;39.30;;;;;;4931375;29;20190;-72
2022/03/03 12:06:10;;;;;;;24.70;21.40;;;19.50;41.10;;;;;;4943375;29;20309;-72
2022/03/03 12:08:37;;;;;;;26.57;23.83;;;19.30;42.00;;;;;;4934044;29;20273;-72
2022/03/03 12:11:14;;;;;;;24.10;21.60;;;20.00;39.50;;;;;;4934418;29;20185;-72
2022/03/03 12:13:40;;;;;;;24.33;21.80;;;20.00;40.00;;;;;;4924160;29;20183;-72
2022/03/03 12:16:25;;;;;;;21.83;19.73;;;19.90;40.40;;;;;;4914882;29;20601;-72
2022/03/03 12:18:55;;;;;;;23.20;20.27;;;18.50;42.20;;;;;;4915063;29;20560;-72
2022/03/03 12:21:57;;;;;;;22.47;19.80;;;17.70;43.80;;;;;;4913926;29;20678;-72
2022/03/03 12:24:32;;;;;;;22.00;19.60;;;17.80;43.90;;;;;;4911056;29;20198;-72
2022/03/03 12:27:05;;;;;;;21.90;19.57;;;18.30;43.50;;;;;;4929391;29;20843;-71
2022/03/03 12:29:38;;;;;;;22.87;20.47;;;19.20;41.70;;;;;;4934196;29;20555;-71
2022/03/03 12:32:29;;;;;;;23.57;20.83;;;19.00;40.70;;;;;;4918276;29;20191;-72
2022/03/03 12:35:00;;;;;;;24.13;21.63;;;19.30;40.30;;;;;;4914774;29;20213;-72
2022/03/03 12:37:27;;;;;;;24.20;20.50;;;20.70;38.90;;;;;;4914661;29;20370;-72
2022/03/03 12:39:56;;;;;;;22.03;19.73;;;19.70;40.00;;;;;;4917417;29;20229;-72
2022/03/03 12:42:25;;;;;;;24.33;21.77;;;18.60;42.60;;;;;;4927346;29;20652;-72
2022/03/03 12:44:59;;;;;;;24.70;22.17;;;18.50;41.60;;;;;;4914853;29;20194;-73
2022/03/03 12:47:36;;;;;;;26.17;23.43;;;19.10;40.40;;;;;;4914063;29;20241;-71
2022/03/03 12:50:14;;;;;;;25.83;23.13;;;20.00;39.50;;;;;;4915086;29;20780;-71
2022/03/03 12:52:41;;;;;;;26.90;23.40;;;20.50;39.70;;;;;;4929702;29;20194;-73
2022/03/03 12:55:10;;;;;;;26.60;23.90;;;20.00;40.00;;;;;;4933476;29;20295;-71
2022/03/03 12:57:38;;;;;;;26.47;22.07;;;20.30;39.30;;;;;;4933475;29;20646;-71
2022/03/03 13:00:10;;;;;;;24.00;21.57;;;20.90;40.00;;;;;;4933985;29;20241;-70
2022/03/03 13:02:50;;;;;;;24.30;21.77;;;20.90;38.70;;;;;;4931618;29;20566;-74
2022/03/03 13:05:35;;;;;;;26.23;23.43;;;21.30;38.60;;;;;;4915396;29;20233;-73
2022/03/03 13:08:02;;;;;;;24.80;22.10;;;21.20;38.60;;;;;;4933272;29;20190;-71
2022/03/03 13:10:30;;;;;;;24.60;21.93;;;20.50;38.40;;;;;;4936489;29;20947;-71
2022/03/03 13:12:57;;;;;;;28.17;21.07;;;21.10;39.10;;;;;;4937533;29;20190;-71
2022/03/03 13:15:34;;;;;;;24.17;21.20;;;20.80;39.60;;;;;;4936014;29;20360;-70
2022/03/03 13:18:03;;;;;;;27.77;24.73;;;20.00;41.40;;;;;;4932371;29;20198;-71
2022/03/03 13:20:39;;;;;;;30.10;27.00;;;18.80;41.30;;;;;;4925910;29;20195;-71
2022/03/03 13:23:08;;;;;;;25.50;22.27;;;17.90;42.60;;;;;;4936120;29;20186;-71
2022/03/03 13:25:34;;;;;;;24.53;21.87;;;17.30;44.30;;;;;;4937211;29;20210;-71
2022/03/03 13:28:00;;;;;;;23.20;20.30;;;17.50;44.30;;;;;;4936882;29;20334;-71
2022/03/03 13:30:27;;;;;;;23.77;18.60;;;18.00;44.20;;;;;;4936918;29;20722;-71
2022/03/03 13:32:53;;;;;;;23.53;20.23;;;17.40;44.30;;;;;;4937315;29;20205;-71
2022/03/03 13:35:21;;;;;;;23.53;18.47;;;17.90;43.90;;;;;;4927418;29;20208;-72
2022/03/03 13:37:48;;;;;;;24.13;19.27;;;18.60;43.40;;;;;;4936676;29;20186;-71
2022/03/03 13:40:22;;;;;;;23.10;19.70;;;19.10;42.80;;;;;;4937186;29;20284;-71
2022/03/03 13:42:59;;;;;;;23.87;21.07;;;19.30;41.70;;;;;;4937538;29;20178;-71
2022/03/03 13:45:30;;;;;;;23.27;18.33;;;18.60;41.80;;;;;;4926233;29;20221;-71
2022/03/03 13:48:08;;;;;;;21.07;17.07;;;17.40;44.60;;;;;;4935970;29;20186;-71
2022/03/03 13:50:36;;;;;;;23.87;18.93;;;17.30;45.60;;;;;;4919123;29;20678;-70
2022/03/03 13:53:24;;;;;;;22.10;19.07;;;18.20;43.70;;;;;;4916580;29;20221;-70
2022/03/03 13:56:06;;;;;;;22.43;18.07;;;18.10;42.10;;;;;;4917701;29;20227;-70
2022/03/03 13:58:32;;;;;;;21.27;17.93;;;17.20;46.00;;;;;;4917399;29;20190;-71
2022/03/03 14:00:58;;;;;;;23.17;19.63;;;17.30;45.70;;;;;;4917881;29;20279;-70
2022/03/03 14:03:37;;;;;;;20.90;16.77;;;17.20;46.30;;;;;;4923538;29;20218;-71
2022/03/03 14:06:06;;;;;;;23.30;16.77;;;17.50;44.00;;;;;;4936800;29;20217;-71
2022/03/03 14:08:44;;;;;;;22.27;17.47;;;17.50;43.10;;;;;;4934821;29;20218;-72
2022/03/03 14:11:23;;;;;;;20.53;18.50;;;17.20;40.90;;;;;;4936594;29;20310;-72
2022/03/03 14:13:57;;;;;;;24.93;18.40;;;17.20;41.20;;;;;;4920175;29;20265;-71
2022/03/03 14:16:31;;;;;;;24.00;17.07;;;17.00;42.20;;;;;;4917325;29;20211;-70
2022/03/03 14:18:59;;;;;;;19.60;16.87;;;16.80;43.10;;;;;;4928390;29;20250;-70
2022/03/03 14:21:26;;;;;;;21.47;15.47;;;16.30;43.00;;;;;;4917117;29;20187;-71
2022/03/03 14:23:52;;;;;;;19.13;14.77;;;15.90;43.00;;;;;;4916214;29;20562;-71
2022/03/03 14:26:21;;;;;;;18.27;16.37;;;15.90;42.80;;;;;;4917303;29;20230;-71
2022/03/03 14:28:48;;;;;;;19.87;17.37;;;15.90;40.60;;;;;;4917002;29;20194;-71
2022/03/03 14:31:15;;;;;;;17.60;15.83;;;16.40;39.80;;;;;;4916073;29;20541;-71
2022/03/03 14:33:41;;;;;;;21.10;18.93;;;16.90;39.10;;;;;;4934811;29;20182;-71
2022/03/03 14:36:08;;;;;;;19.90;17.77;;;16.80;37.90;;;;;;4917054;29;20218;-73
2022/03/03 14:38:35;;;;;;;20.80;18.70;;;16.40;38.70;;;;;;4916913;29;20191;-72
2022/03/03 14:41:02;;;;;;;19.53;17.53;;;16.50;38.50;;;;;;4917080;29;20179;-72
2022/03/03 14:43:37;;;;;;;20.70;18.77;;;15.70;37.80;;;;;;4916990;29;20183;-72
2022/03/03 14:46:08;;;;;;;18.93;17.13;;;15.20;38.40;;;;;;4917589;29;20215;-72
2022/03/03 14:48:37;;;;;;;19.10;17.20;;;14.80;39.70;;;;;;4915068;29;20664;-71
2022/03/03 14:51:10;;;;;;;19.97;17.97;;;15.00;38.90;;;;;;4916768;29;20191;-72
2022/03/03 14:53:37;;;;;;;17.13;15.40;;;15.40;38.90;;;;;;4916798;29;20274;-73
2022/03/03 14:56:04;;;;;;;20.10;18.20;;;16.00;38.00;;;;;;4916612;29;20305;-71
2022/03/03 14:58:30;;;;;;;19.33;17.53;;;16.10;35.80;;;;;;4916196;29;20674;-72
2022/03/03 15:00:59;;;;;;;17.90;16.10;;;15.70;36.80;;;;;;4922260;29;20175;-72
2022/03/03 15:03:25;;;;;;;17.73;15.93;;;15.40;37.50;;;;;;4935685;29;20217;-72
2022/03/03 15:05:51;;;;;;;17.47;15.77;;;14.90;39.40;;;;;;4935481;29;20582;-72
2022/03/03 15:08:17;;;;;;;16.57;14.63;;;15.00;39.40;;;;;;4934046;29;20193;-72
2022/03/03 15:10:44;;;;;;;17.90;15.30;;;15.00;40.60;;;;;;4935394;29;20205;-72
2022/03/03 15:13:10;;;;;;;15.93;14.23;;;15.00;39.10;;;;;;4933764;29;20186;-71
2022/03/03 15:15:36;;;;;;;15.03;13.53;;;14.80;40.60;;;;;;4926484;29;20210;-71
2022/03/03 15:18:02;;;;;;;16.50;13.60;;;14.60;41.90;;;;;;4914896;29;20257;-72
2022/03/03 15:20:28;;;;;;;16.97;13.07;;;14.50;41.70;;;;;;4914990;29;20194;-72
2022/03/03 15:22:54;;;;;;;21.97;15.00;;;14.40;43.50;;;;;;4916120;29;20295;-72
2022/03/03 15:25:20;;;;;;;17.40;13.83;;;14.00;44.40;;;;;;4915190;29;20572;-72
2022/03/03 15:27:46;;;;;;;16.23;12.83;;;13.60;44.50;;;;;;4916894;29;20183;-72
2022/03/03 15:30:12;;;;;;;17.93;13.27;;;13.40;43.10;;;;;;4937270;29;20258;-72
2022/03/03 15:32:37;;;;;;;16.77;13.47;;;13.00;42.90;;;;;;4917099;29;20242;-71
2022/03/03 15:37:51;;;;;;;16.60;12.67;;;12.70;44.50;;;;;;4915748;29;20187;-71
2022/03/03 15:40:16;;;;;;;17.60;12.97;;;12.70;44.10;;;;;;4915840;29;20685;-71
2022/03/03 15:42:43;;;;;;;15.63;13.17;;;12.70;44.80;;;;;;4915547;29;20187;-72
2022/03/03 15:45:09;;;;;;;15.27;12.50;;;12.80;44.70;;;;;;4930509;29;20187;-70
2022/03/03 15:47:35;;;;;;;16.30;12.77;;;12.70;44.50;;;;;;4933342;29;20182;-71
2022/03/03 15:50:01;;;;;;;17.03;12.07;;;12.70;44.90;;;;;;4934679;29;20718;-72
2022/03/03 15:52:27;;;;;;;15.93;11.93;;;12.50;45.70;;;;;;4934717;29;20197;-72
2022/03/03 15:54:53;;;;;;;20.07;12.57;;;12.30;44.60;;;;;;4934259;29;20241;-72
2022/03/03 15:57:18;;;;;;;14.87;12.60;;;12.10;45.70;;;;;;4934046;29;20261;-72
2022/03/03 15:59:45;;;;;;;14.93;13.40;;;12.10;47.80;;;;;;4910545;29;20183;-72
2022/03/03 16:02:13;;;;;;;16.17;12.90;;;12.00;48.00;;;;;;4911824;29;20191;-72
2022/03/03 16:04:40;;;;;;;16.20;13.57;;;11.90;47.90;;;;;;4915799;29;20183;-72
2022/03/03 16:07:08;;;;;;;16.10;12.93;;;11.80;48.50;;;;;;4914389;29;20627;-74
2022/03/03 16:09:37;;;;;;;13.90;12.20;;;11.80;49.10;;;;;;4913621;29;20734;-72
2022/03/03 16:12:05;;;;;;;13.67;12.23;;;12.00;51.00;;;;;;4915175;29;20222;-70
2022/03/03 16:14:32;;;;;;;15.43;12.47;;;12.00;51.50;;;;;;4913958;29;20203;-71
2022/03/03 16:16:59;;;;;;;20.90;12.50;;;11.80;52.30;;;;;;4956990;23;20233;-75
2022/03/03 16:19:26;;;;;;;13.77;12.27;;;11.50;53.20;;;;;;4949478;28;20192;-75
2022/03/03 16:21:52;;;;;;;16.30;12.23;;;11.80;53.20;;;;;;4951931;28;20186;-75
2022/03/03 16:24:18;;;;;;;18.80;11.87;;;12.10;52.70;;;;;;4944422;28;20186;-74
2022/03/03 16:26:43;;;;;;;15.90;12.33;;;12.30;51.10;;;;;;4924489;29;20261;-75
2022/03/03 16:29:13;;;;;;;16.37;12.37;;;12.20;50.70;;;;;;4931575;29;20609;-74
2022/03/03 16:32:06;;;;;;;15.03;12.70;;;11.90;50.30;;;;;;4932124;29;20622;-73
2022/03/03 16:34:34;;;;;;;17.80;12.43;;;11.90;49.90;;;;;;4932865;29;20229;-76
2022/03/03 16:37:01;;;;;;;13.83;12.20;;;11.70;50.00;;;;;;4932463;29;20202;-76
2022/03/03 16:39:26;;;;;;;13.23;11.80;;;11.50;50.30;;;;;;4932753;29;20182;-74
2022/03/03 16:41:53;;;;;;;13.23;11.83;;;11.30;50.20;;;;;;4933277;29;20200;-73